WetterOnline ( http://www.wetteronline.de )

Wetter aktuell Hagen

Aktuelles Wetter: Lüdenscheid (392m)

6-stündlich | Neueste Meldungen
Ortszeit Temperatur Wetter
Sa, 16.02. 13:00 13.6° C leicht bewölkt
Sa, 16.02. 7:00 7.2° C wolkenlos
Sa, 16.02. 1:00 9.5° C wolkenlos
Fr, 15.02. 19:00 10.7° C wolkenlos
Fr, 15.02. 13:00 14.5° C wolkenlos
Fr, 15.02. 7:00 0.7° C wolkenlos
Fr, 15.02. 1:00 2.8° C wolkenlos
Do, 14.02. 19:00 7.6° C wolkenlos
Ortszeit Temperatur Wetter
Sa, 16.02. 13:30 14.5° C wolkig
Sa, 16.02. 13:20 14.5° C wolkig
Sa, 16.02. 13:10 13.8° C wolkig
Sa, 16.02. 13:00 13.6° C leicht bewölkt
Sa, 16.02. 12:50 13.6° C wolkig
Sa, 16.02. 12:40 14.1° C wolkig
Sa, 16.02. 12:30 13.5° C wolkig
Sa, 16.02. 12:00 13.0° C leicht bewölkt
Sa, 16.02. 11:30 12.5° C wolkenlos
Sa, 16.02. 11:00 11.8° C wolkenlos
Sa, 16.02. 10:30 10.6° C wolkenlos
Ortszeit Relative Feuchte Sichtweite
Sa, 16.02. 13:00 38% 50 km
Sa, 16.02. 7:00 48% 50 km
Sa, 16.02. 1:00 44% 55 km
Fr, 15.02. 19:00 42% 65 km
Fr, 15.02. 13:00 35% 65 km
Fr, 15.02. 7:00 72% >70 km
Fr, 15.02. 1:00 61% >70 km
Do, 14.02. 19:00 40% >70 km
Ortszeit Relative Feuchte Sichtweite
Sa, 16.02. 13:30 36% 45 km
Sa, 16.02. 13:20 36% -
Sa, 16.02. 13:10 35% -
Sa, 16.02. 13:00 38% 50 km
Sa, 16.02. 12:50 38% -
Sa, 16.02. 12:40 39% -
Sa, 16.02. 12:30 35% 65 km
Sa, 16.02. 12:00 35% 45 km
Sa, 16.02. 11:30 36% 55 km
Sa, 16.02. 11:00 38% 65 km
Sa, 16.02. 10:30 41% 45 km
Ortszeit Niederschlagsmenge Niederschlagsart
Sa, 16.02. 13:00 0.0 l/m2 in 6 Std. -
Sa, 16.02. 7:00 0.0 l/m2 in 12 Std. -
Sa, 16.02. 1:00 0.0 l/m2 in 6 Std. -
Fr, 15.02. 19:00 0.0 l/m2 in 12 Std. -
Fr, 15.02. 13:00 0.0 l/m2 in 6 Std. -
Fr, 15.02. 7:00 0.0 l/m2 in 12 Std. -
Fr, 15.02. 1:00 0.0 l/m2 in 6 Std. -
Do, 14.02. 19:00 0.0 l/m2 in 12 Std. -
Ortszeit Niederschlagsmenge Niederschlagsart
Sa, 16.02. 13:30 0.0 l/m2 in 1 Std. -
Sa, 16.02. 13:20 keine Meldung -
Sa, 16.02. 13:10 keine Meldung -
Sa, 16.02. 13:00 0.0 l/m2 in 1 Std. -
Sa, 16.02. 12:50 keine Meldung -
Sa, 16.02. 12:40 keine Meldung -
Sa, 16.02. 12:30 0.0 l/m2 in 1 Std. -
Sa, 16.02. 12:00 0.0 l/m2 in 1 Std. -
Sa, 16.02. 11:30 0.0 l/m2 in 1 Std. -
Sa, 16.02. 11:00 0.0 l/m2 in 1 Std. -
Sa, 16.02. 10:30 0.0 l/m2 in 1 Std. -
Ortszeit Stärke Spitze Richtung
km/h Bft. km/h Grad Sektor
Sa, 16.02. 13:00 18 3 25 240° SW
Sa, 16.02. 7:00 7 2 18 230° SW
Sa, 16.02. 1:00 7 2 18 180° S
Fr, 15.02. 19:00 7 2 25 100° O
Fr, 15.02. 13:00 15 3 26 190° S
Fr, 15.02. 7:00 6 1 9 80° O
Fr, 15.02. 1:00 4 1 11 60° NO
Do, 14.02. 19:00 4 1 14 80° O
Ortszeit Stärke Spitze Richtung
km/h Bft. km/h Grad Sektor
Sa, 16.02. 13:30 11 2 25 240° SW
Sa, 16.02. 13:20 11 2 - 240° SW
Sa, 16.02. 13:10 14 3 - 240° SW
Sa, 16.02. 13:00 18 3 25 240° SW
Sa, 16.02. 12:50 18 3 - 240° SW
Sa, 16.02. 12:40 14 3 - 240° SW
Sa, 16.02. 12:30 14 3 22 240° SW
Sa, 16.02. 12:00 13 3 24 240° SW
Sa, 16.02. 11:30 11 2 19 240° SW
Sa, 16.02. 11:00 7 2 18 230° SW
Sa, 16.02. 10:30 7 2 18 220° SW
Ortszeit Untergrenze Bedeckung Gattung
total tief tief mittel hoch
Sa, 16.02. 13:00 10500 m 8/8 0/8 - - -
Sa, 16.02. 7:00 - 0/8 0/8 - - -
Sa, 16.02. 1:00 - 0/8 0/8 - - -
Fr, 15.02. 19:00 - 0/8 0/8 - - -
Fr, 15.02. 13:00 - 0/8 0/8 - - -
Fr, 15.02. 7:00 - 0/8 0/8 - - -
Fr, 15.02. 1:00 - 0/8 0/8 - - -
Do, 14.02. 19:00 - 0/8 0/8 - - -
Ortszeit Bedeckungsgrad in Achtel und Wolkenuntergrenze
Sa, 16.02. 13:30 8(10500m)
Sa, 16.02. 13:20 8(10500m)
Sa, 16.02. 13:10 8(10500m)
Sa, 16.02. 13:00 8(10500m)
Sa, 16.02. 12:50 8(10500m)
Sa, 16.02. 12:40 8(10500m)
Sa, 16.02. 12:30 8(10500m)
Sa, 16.02. 12:00 6(10500m)
Sa, 16.02. 11:30 1(10500m)
Sa, 16.02. 11:00 keine Wolken
Sa, 16.02. 10:30 keine Wolken
Ortszeit Luftdruck NN (hPa) Tendenz (hPa in 3 Std.)
Sa, 16.02. 13:00 1026 - 0,4
Sa, 16.02. 7:00 1027 - 0,7
Sa, 16.02. 1:00 1028 - 0,6
Fr, 15.02. 19:00 1030 - 0,6
Fr, 15.02. 13:00 1032 - 1,0
Fr, 15.02. 7:00 1035 - 0,3
Fr, 15.02. 1:00 1036 + 0,1
Do, 14.02. 19:00 1036 - 0,1
Ortszeit Luftdruck NN (hPa) Tendenz (hPa in 3 Std.)
Sa, 16.02. 13:30 1026 - 0,4
Sa, 16.02. 13:20 1026 keine Meldung
Sa, 16.02. 13:10 1026 keine Meldung
Sa, 16.02. 13:00 1026 - 0,4
Sa, 16.02. 12:50 1026 keine Meldung
Sa, 16.02. 12:40 1026 keine Meldung
Sa, 16.02. 12:30 1026 - 0,1
Sa, 16.02. 12:00 1026 - 0,1
Sa, 16.02. 11:30 1026 - 0,1
Sa, 16.02. 11:00 1026 0,0
Sa, 16.02. 10:30 1027 + 0,5
Ortszeit Schneehöhe (cm)
Sa, 16.02. 13:00 0
Sa, 16.02. 7:00 0
Sa, 16.02. 1:00 0
Fr, 15.02. 19:00 0
Fr, 15.02. 13:00 0
Fr, 15.02. 7:00 0
Fr, 15.02. 1:00 0
Do, 14.02. 19:00 0
Ortszeit Schneehöhe (cm)
Sa, 16.02. 13:30 0
Sa, 16.02. 13:20 0
Sa, 16.02. 13:10 0
Sa, 16.02. 13:00 0
Sa, 16.02. 12:50 0
Sa, 16.02. 12:40 0
Sa, 16.02. 12:30 0
Sa, 16.02. 12:00 0
Sa, 16.02. 11:30 0
Sa, 16.02. 11:00 0
Sa, 16.02. 10:30 0
Link zu dieser Seite / Seite empfehlen

Das Wetter in ...